Terminal Aerodrome Forecast
Issued by NWS

Home | Current Version | Previous Version | Text Only | Print | Product List | Glossary On
Versions: 1 2 3 4 5 6 7 8 9 10 11 12
467
FTPA31 PHFO 171738
TAFHJH
TAF
PHJH 171738Z 1718/1818 04010KT P6SM FEW020 SCT030
     FM171900 05015KT P6SM FEW030 SCT050
     FM180600 04008KT P6SM FEW030
      AMD NOT SKED AFT 180400=

USA.gov is the U.S. government's official web portal to all federal, state and local government web resources and services.